sensor_id;sensor_type;location;lat;lon;timestamp;temperature;humidity
31307;DHT22;17935;51.120;13.132;2023-12-22T00:02:16;4.40;99.90
31307;DHT22;17935;51.120;13.132;2023-12-22T00:04:44;4.30;99.90
31307;DHT22;17935;51.120;13.132;2023-12-22T00:07:14;4.30;99.90
31307;DHT22;17935;51.120;13.132;2023-12-22T00:09:53;4.20;99.90
31307;DHT22;17935;51.120;13.132;2023-12-22T00:12:29;4.10;99.90
31307;DHT22;17935;51.120;13.132;2023-12-22T00:15:05;4.10;99.90
31307;DHT22;17935;51.120;13.132;2023-12-22T00:17:33;4.20;99.90
31307;DHT22;17935;51.120;13.132;2023-12-22T00:20:04;4.40;99.90
31307;DHT22;17935;51.120;13.132;2023-12-22T00:22:30;4.50;99.90
31307;DHT22;17935;51.120;13.132;2023-12-22T00:25:03;4.50;99.90
31307;DHT22;17935;51.120;13.132;2023-12-22T00:27:29;4.40;99.90
31307;DHT22;17935;51.120;13.132;2023-12-22T00:30:00;4.50;99.90
31307;DHT22;17935;51.120;13.132;2023-12-22T00:32:35;4.50;99.90
31307;DHT22;17935;51.120;13.132;2023-12-22T00:35:04;4.50;99.90
31307;DHT22;17935;51.120;13.132;2023-12-22T00:37:30;4.60;99.90
31307;DHT22;17935;51.120;13.132;2023-12-22T00:39:58;4.60;99.90
31307;DHT22;17935;51.120;13.132;2023-12-22T00:42:35;4.60;99.90
31307;DHT22;17935;51.120;13.132;2023-12-22T00:45:04;4.70;99.90
31307;DHT22;17935;51.120;13.132;2023-12-22T00:47:30;4.80;99.90
31307;DHT22;17935;51.120;13.132;2023-12-22T00:50:16;4.70;99.90
31307;DHT22;17935;51.120;13.132;2023-12-22T00:52:42;4.80;99.90
31307;DHT22;17935;51.120;13.132;2023-12-22T00:55:11;4.80;99.90
31307;DHT22;17935;51.120;13.132;2023-12-22T00:57:36;4.90;99.90
31307;DHT22;17935;51.120;13.132;2023-12-22T01:00:04;4.80;99.90
31307;DHT22;17935;51.120;13.132;2023-12-22T01:02:34;4.80;99.90
31307;DHT22;17935;51.120;13.132;2023-12-22T01:05:05;4.90;99.90
31307;DHT22;17935;51.120;13.132;2023-12-22T01:07:31;4.90;99.90
31307;DHT22;17935;51.120;13.132;2023-12-22T01:10:00;5.00;99.90
31307;DHT22;17935;51.120;13.132;2023-12-22T01:12:34;5.00;99.90
31307;DHT22;17935;51.120;13.132;2023-12-22T01:15:00;5.00;99.90
31307;DHT22;17935;51.120;13.132;2023-12-22T01:17:28;5.00;99.90
31307;DHT22;17935;51.120;13.132;2023-12-22T01:20:00;4.90;99.90
31307;DHT22;17935;51.120;13.132;2023-12-22T01:22:32;4.80;99.90
31307;DHT22;17935;51.120;13.132;2023-12-22T01:25:07;4.80;99.90
31307;DHT22;17935;51.120;13.132;2023-12-22T01:27:38;4.80;99.90
31307;DHT22;17935;51.120;13.132;2023-12-22T01:30:07;4.80;99.90
31307;DHT22;17935;51.120;13.132;2023-12-22T01:32:40;4.90;99.90
31307;DHT22;17935;51.120;13.132;2023-12-22T01:35:06;4.90;99.90
31307;DHT22;17935;51.120;13.132;2023-12-22T01:37:36;4.90;99.90
31307;DHT22;17935;51.120;13.132;2023-12-22T01:40:08;5.00;99.90
31307;DHT22;17935;51.120;13.132;2023-12-22T01:42:34;5.00;99.90
31307;DHT22;17935;51.120;13.132;2023-12-22T01:45:00;5.00;99.90
31307;DHT22;17935;51.120;13.132;2023-12-22T01:47:26;4.90;99.90
31307;DHT22;17935;51.120;13.132;2023-12-22T01:49:54;4.70;99.90
31307;DHT22;17935;51.120;13.132;2023-12-22T01:52:26;4.60;99.90
31307;DHT22;17935;51.120;13.132;2023-12-22T01:54:58;4.40;99.90
31307;DHT22;17935;51.120;13.132;2023-12-22T01:57:39;4.30;99.90
31307;DHT22;17935;51.120;13.132;2023-12-22T02:00:09;4.10;99.90
31307;DHT22;17935;51.120;13.132;2023-12-22T02:02:39;4.00;99.90
31307;DHT22;17935;51.120;13.132;2023-12-22T02:05:15;4.00;99.90
31307;DHT22;17935;51.120;13.132;2023-12-22T02:07:42;3.90;99.90
31307;DHT22;17935;51.120;13.132;2023-12-22T02:10:08;3.90;99.90
31307;DHT22;17935;51.120;13.132;2023-12-22T02:12:34;3.70;99.90
31307;DHT22;17935;51.120;13.132;2023-12-22T02:15:00;3.60;99.90
31307;DHT22;17935;51.120;13.132;2023-12-22T02:17:32;3.50;99.90
31307;DHT22;17935;51.120;13.132;2023-12-22T02:22:43;3.50;99.90
31307;DHT22;17935;51.120;13.132;2023-12-22T02:25:20;3.50;99.90
31307;DHT22;17935;51.120;13.132;2023-12-22T02:28:10;3.50;99.90
31307;DHT22;17935;51.120;13.132;2023-12-22T02:34:03;3.50;99.90
31307;DHT22;17935;51.120;13.132;2023-12-22T02:36:35;3.60;99.90
31307;DHT22;17935;51.120;13.132;2023-12-22T02:39:04;3.60;99.90
31307;DHT22;17935;51.120;13.132;2023-12-22T02:41:33;3.70;99.90
31307;DHT22;17935;51.120;13.132;2023-12-22T02:44:01;3.80;99.90
31307;DHT22;17935;51.120;13.132;2023-12-22T02:46:29;3.80;99.90
31307;DHT22;17935;51.120;13.132;2023-12-22T02:48:58;3.90;99.90
31307;DHT22;17935;51.120;13.132;2023-12-22T02:51:23;3.90;99.90
31307;DHT22;17935;51.120;13.132;2023-12-22T02:54:04;4.00;99.90
31307;DHT22;17935;51.120;13.132;2023-12-22T02:56:30;4.00;99.90
31307;DHT22;17935;51.120;13.132;2023-12-22T02:59:02;4.10;99.90
31307;DHT22;17935;51.120;13.132;2023-12-22T03:01:35;4.20;99.90
31307;DHT22;17935;51.120;13.132;2023-12-22T03:04:27;4.20;99.90
31307;DHT22;17935;51.120;13.132;2023-12-22T03:07:01;4.30;99.90
31307;DHT22;17935;51.120;13.132;2023-12-22T03:09:27;4.30;99.90
31307;DHT22;17935;51.120;13.132;2023-12-22T03:12:00;4.30;99.90
31307;DHT22;17935;51.120;13.132;2023-12-22T03:14:36;4.40;99.90
31307;DHT22;17935;51.120;13.132;2023-12-22T03:17:06;4.40;99.90
31307;DHT22;17935;51.120;13.132;2023-12-22T03:19:42;4.40;99.90
31307;DHT22;17935;51.120;13.132;2023-12-22T03:22:15;4.40;99.90
31307;DHT22;17935;51.120;13.132;2023-12-22T03:24:51;4.50;99.90
31307;DHT22;17935;51.120;13.132;2023-12-22T03:27:24;4.60;99.90
31307;DHT22;17935;51.120;13.132;2023-12-22T03:30:01;4.60;99.90
31307;DHT22;17935;51.120;13.132;2023-12-22T03:32:30;4.60;99.90
31307;DHT22;17935;51.120;13.132;2023-12-22T03:34:56;4.60;99.90
31307;DHT22;17935;51.120;13.132;2023-12-22T03:37:28;4.60;99.90
31307;DHT22;17935;51.120;13.132;2023-12-22T03:40:00;4.60;99.90
31307;DHT22;17935;51.120;13.132;2023-12-22T03:42:27;4.60;99.90
31307;DHT22;17935;51.120;13.132;2023-12-22T03:45:03;4.60;99.90
31307;DHT22;17935;51.120;13.132;2023-12-22T03:47:43;4.60;99.90
31307;DHT22;17935;51.120;13.132;2023-12-22T03:50:15;4.70;99.90
31307;DHT22;17935;51.120;13.132;2023-12-22T03:52:44;4.70;99.90
31307;DHT22;17935;51.120;13.132;2023-12-22T03:55:10;4.60;99.90
31307;DHT22;17935;51.120;13.132;2023-12-22T03:57:42;4.60;99.90
31307;DHT22;17935;51.120;13.132;2023-12-22T04:00:10;4.60;99.90
31307;DHT22;17935;51.120;13.132;2023-12-22T04:02:41;4.50;99.90
31307;DHT22;17935;51.120;13.132;2023-12-22T04:05:16;4.50;99.90
31307;DHT22;17935;51.120;13.132;2023-12-22T04:07:44;4.40;99.90
31307;DHT22;17935;51.120;13.132;2023-12-22T04:10:13;4.40;99.90
31307;DHT22;17935;51.120;13.132;2023-12-22T04:12:41;4.30;99.90
31307;DHT22;17935;51.120;13.132;2023-12-22T04:15:16;4.20;99.90
31307;DHT22;17935;51.120;13.132;2023-12-22T04:17:41;4.20;99.90
31307;DHT22;17935;51.120;13.132;2023-12-22T04:20:07;4.20;99.90
31307;DHT22;17935;51.120;13.132;2023-12-22T04:22:33;4.10;99.90
31307;DHT22;17935;51.120;13.132;2023-12-22T04:24:59;4.00;99.90
31307;DHT22;17935;51.120;13.132;2023-12-22T04:27:32;4.10;99.90
31307;DHT22;17935;51.120;13.132;2023-12-22T04:30:00;4.10;99.90
31307;DHT22;17935;51.120;13.132;2023-12-22T04:32:26;4.20;99.90
31307;DHT22;17935;51.120;13.132;2023-12-22T04:34:52;4.30;99.90
31307;DHT22;17935;51.120;13.132;2023-12-22T04:37:17;4.40;99.90
31307;DHT22;17935;51.120;13.132;2023-12-22T04:39:43;4.40;99.90
31307;DHT22;17935;51.120;13.132;2023-12-22T04:42:17;4.40;99.90
31307;DHT22;17935;51.120;13.132;2023-12-22T04:44:46;4.40;99.90
31307;DHT22;17935;51.120;13.132;2023-12-22T04:47:11;4.40;99.90
31307;DHT22;17935;51.120;13.132;2023-12-22T04:49:48;4.40;99.90
31307;DHT22;17935;51.120;13.132;2023-12-22T04:52:25;4.30;99.90
31307;DHT22;17935;51.120;13.132;2023-12-22T04:54:56;4.20;99.90
31307;DHT22;17935;51.120;13.132;2023-12-22T04:57:25;4.20;99.90
31307;DHT22;17935;51.120;13.132;2023-12-22T06:00:12;3.80;99.90
31307;DHT22;17935;51.120;13.132;2023-12-22T06:02:51;3.70;99.90
31307;DHT22;17935;51.120;13.132;2023-12-22T06:05:19;3.70;99.90
31307;DHT22;17935;51.120;13.132;2023-12-22T06:07:56;3.70;99.90
31307;DHT22;17935;51.120;13.132;2023-12-22T06:10:24;3.70;99.90
31307;DHT22;17935;51.120;13.132;2023-12-22T06:12:54;3.70;99.90
31307;DHT22;17935;51.120;13.132;2023-12-22T06:15:23;3.50;99.90
31307;DHT22;17935;51.120;13.132;2023-12-22T06:17:48;3.50;99.90
31307;DHT22;17935;51.120;13.132;2023-12-22T06:20:14;3.30;99.90
31307;DHT22;17935;51.120;13.132;2023-12-22T06:22:40;3.20;99.90
31307;DHT22;17935;51.120;13.132;2023-12-22T06:25:14;3.20;99.90
31307;DHT22;17935;51.120;13.132;2023-12-22T06:27:40;3.30;99.90
31307;DHT22;17935;51.120;13.132;2023-12-22T06:30:06;3.50;99.90
31307;DHT22;17935;51.120;13.132;2023-12-22T06:32:37;3.60;99.90
31307;DHT22;17935;51.120;13.132;2023-12-22T06:35:05;3.70;99.90
31307;DHT22;17935;51.120;13.132;2023-12-22T06:37:31;3.70;99.90
31307;DHT22;17935;51.120;13.132;2023-12-22T06:39:56;3.80;99.90
31307;DHT22;17935;51.120;13.132;2023-12-22T06:42:22;3.70;99.90
31307;DHT22;17935;51.120;13.132;2023-12-22T06:44:48;3.70;99.90
31307;DHT22;17935;51.120;13.132;2023-12-22T06:47:14;3.70;99.90
31307;DHT22;17935;51.120;13.132;2023-12-22T06:49:40;3.80;99.90
31307;DHT22;17935;51.120;13.132;2023-12-22T06:52:06;3.80;99.90
31307;DHT22;17935;51.120;13.132;2023-12-22T06:54:31;3.70;99.90
31307;DHT22;17935;51.120;13.132;2023-12-22T06:56:58;3.60;99.90
31307;DHT22;17935;51.120;13.132;2023-12-22T06:59:23;3.50;99.90
31307;DHT22;17935;51.120;13.132;2023-12-22T07:01:52;3.50;99.90
31307;DHT22;17935;51.120;13.132;2023-12-22T07:04:21;3.50;99.90
31307;DHT22;17935;51.120;13.132;2023-12-22T07:19:37;3.80;99.90
31307;DHT22;17935;51.120;13.132;2023-12-22T07:22:13;3.80;99.90
31307;DHT22;17935;51.120;13.132;2023-12-22T07:24:40;3.80;99.90
31307;DHT22;17935;51.120;13.132;2023-12-22T07:27:05;3.80;99.90
31307;DHT22;17935;51.120;13.132;2023-12-22T07:29:34;3.80;99.90
31307;DHT22;17935;51.120;13.132;2023-12-22T07:32:29;3.60;99.90
31307;DHT22;17935;51.120;13.132;2023-12-22T07:47:58;3.10;99.90
31307;DHT22;17935;51.120;13.132;2023-12-22T07:50:49;3.10;99.90
31307;DHT22;17935;51.120;13.132;2023-12-22T07:53:18;3.10;99.90
31307;DHT22;17935;51.120;13.132;2023-12-22T07:55:52;3.10;99.90
31307;DHT22;17935;51.120;13.132;2023-12-22T07:58:18;3.00;99.90
31307;DHT22;17935;51.120;13.132;2023-12-22T08:03:17;3.00;99.90
31307;DHT22;17935;51.120;13.132;2023-12-22T08:06:26;3.10;99.90
31307;DHT22;17935;51.120;13.132;2023-12-22T08:09:02;3.10;99.90
31307;DHT22;17935;51.120;13.132;2023-12-22T08:11:51;3.10;99.90
31307;DHT22;17935;51.120;13.132;2023-12-22T08:14:22;3.10;99.90
31307;DHT22;17935;51.120;13.132;2023-12-22T08:17:01;3.20;99.90
31307;DHT22;17935;51.120;13.132;2023-12-22T08:19:29;3.20;99.90
31307;DHT22;17935;51.120;13.132;2023-12-22T08:21:57;3.10;99.90
31307;DHT22;17935;51.120;13.132;2023-12-22T08:24:23;3.20;99.90
31307;DHT22;17935;51.120;13.132;2023-12-22T08:26:49;3.20;99.90
31307;DHT22;17935;51.120;13.132;2023-12-22T08:29:18;3.20;99.90
31307;DHT22;17935;51.120;13.132;2023-12-22T08:31:49;3.30;99.90
31307;DHT22;17935;51.120;13.132;2023-12-22T08:34:15;3.30;99.90
31307;DHT22;17935;51.120;13.132;2023-12-22T08:36:40;3.40;99.90
31307;DHT22;17935;51.120;13.132;2023-12-22T08:39:06;3.50;99.90
31307;DHT22;17935;51.120;13.132;2023-12-22T08:44:08;3.50;99.90
31307;DHT22;17935;51.120;13.132;2023-12-22T08:46:39;3.60;99.90
31307;DHT22;17935;51.120;13.132;2023-12-22T08:49:07;3.60;99.90
31307;DHT22;17935;51.120;13.132;2023-12-22T08:51:33;3.60;99.90
31307;DHT22;17935;51.120;13.132;2023-12-22T08:57:15;3.70;99.90
31307;DHT22;17935;51.120;13.132;2023-12-22T08:59:44;4.00;99.90
31307;DHT22;17935;51.120;13.132;2023-12-22T09:02:12;4.30;99.90
31307;DHT22;17935;51.120;13.132;2023-12-22T09:04:38;4.30;99.90
31307;DHT22;17935;51.120;13.132;2023-12-22T09:07:03;4.30;99.90
31307;DHT22;17935;51.120;13.132;2023-12-22T09:12:26;4.20;99.90
31307;DHT22;17935;51.120;13.132;2023-12-22T09:15:12;4.10;99.90
31307;DHT22;17935;51.120;13.132;2023-12-22T09:17:40;4.10;99.90
31307;DHT22;17935;51.120;13.132;2023-12-22T09:20:25;4.20;99.90
31307;DHT22;17935;51.120;13.132;2023-12-22T09:23:03;4.90;99.90
31307;DHT22;17935;51.120;13.132;2023-12-22T09:25:55;5.40;99.90
31307;DHT22;17935;51.120;13.132;2023-12-22T09:28:55;5.10;99.90
31307;DHT22;17935;51.120;13.132;2023-12-22T09:31:55;4.90;99.90
31307;DHT22;17935;51.120;13.132;2023-12-22T09:43:55;4.90;99.90
31307;DHT22;17935;51.120;13.132;2023-12-22T09:49:59;4.70;99.90
31307;DHT22;17935;51.120;13.132;2023-12-22T09:53:09;4.50;99.90
31307;DHT22;17935;51.120;13.132;2023-12-22T09:55:55;4.50;99.90
31307;DHT22;17935;51.120;13.132;2023-12-22T09:58:23;4.30;99.90
31307;DHT22;17935;51.120;13.132;2023-12-22T10:00:49;4.30;99.90
31307;DHT22;17935;51.120;13.132;2023-12-22T10:03:21;4.20;99.90
31307;DHT22;17935;51.120;13.132;2023-12-22T10:05:49;4.30;99.90
31307;DHT22;17935;51.120;13.132;2023-12-22T10:08:18;4.50;99.90
31307;DHT22;17935;51.120;13.132;2023-12-22T10:11:04;4.60;99.90
31307;DHT22;17935;51.120;13.132;2023-12-22T10:13:33;4.50;99.90
31307;DHT22;17935;51.120;13.132;2023-12-22T10:16:00;4.30;99.90
31307;DHT22;17935;51.120;13.132;2023-12-22T10:18:29;4.20;99.90
31307;DHT22;17935;51.120;13.132;2023-12-22T10:20:57;4.00;99.90
31307;DHT22;17935;51.120;13.132;2023-12-22T10:23:29;3.90;99.90
31307;DHT22;17935;51.120;13.132;2023-12-22T10:26:06;4.00;99.90
31307;DHT22;17935;51.120;13.132;2023-12-22T10:28:40;4.30;99.90
31307;DHT22;17935;51.120;13.132;2023-12-22T10:31:08;4.40;99.90
31307;DHT22;17935;51.120;13.132;2023-12-22T10:33:44;4.30;99.90
31307;DHT22;17935;51.120;13.132;2023-12-22T10:36:10;4.30;99.90
31307;DHT22;17935;51.120;13.132;2023-12-22T10:38:35;4.10;99.90
31307;DHT22;17935;51.120;13.132;2023-12-22T10:41:04;3.90;99.90
31307;DHT22;17935;51.120;13.132;2023-12-22T10:43:30;3.90;99.90
31307;DHT22;17935;51.120;13.132;2023-12-22T10:49:01;4.40;99.90
31307;DHT22;17935;51.120;13.132;2023-12-22T10:51:28;4.50;99.90
31307;DHT22;17935;51.120;13.132;2023-12-22T10:53:57;4.50;99.90
31307;DHT22;17935;51.120;13.132;2023-12-22T10:56:23;4.30;99.90
31307;DHT22;17935;51.120;13.132;2023-12-22T10:58:55;4.10;99.90
31307;DHT22;17935;51.120;13.132;2023-12-22T11:01:36;4.00;99.90
31307;DHT22;17935;51.120;13.132;2023-12-22T11:04:09;3.90;99.90
31307;DHT22;17935;51.120;13.132;2023-12-22T11:06:37;3.80;99.90
31307;DHT22;17935;51.120;13.132;2023-12-22T11:09:07;3.80;99.90
31307;DHT22;17935;51.120;13.132;2023-12-22T11:11:41;3.90;99.90
31307;DHT22;17935;51.120;13.132;2023-12-22T11:14:07;3.90;99.90
31307;DHT22;17935;51.120;13.132;2023-12-22T11:16:37;4.00;99.90
31307;DHT22;17935;51.120;13.132;2023-12-22T11:19:03;4.20;99.90
31307;DHT22;17935;51.120;13.132;2023-12-22T11:21:35;4.40;99.90
31307;DHT22;17935;51.120;13.132;2023-12-22T11:24:13;4.70;99.90
31307;DHT22;17935;51.120;13.132;2023-12-22T11:26:59;5.00;99.90
31307;DHT22;17935;51.120;13.132;2023-12-22T11:32:36;5.00;99.90
31307;DHT22;17935;51.120;13.132;2023-12-22T11:37:37;5.10;99.90
31307;DHT22;17935;51.120;13.132;2023-12-22T11:40:09;5.10;99.90
31307;DHT22;17935;51.120;13.132;2023-12-22T11:42:57;5.00;99.90
31307;DHT22;17935;51.120;13.132;2023-12-22T11:45:32;5.00;99.90
31307;DHT22;17935;51.120;13.132;2023-12-22T11:48:18;5.00;99.90
31307;DHT22;17935;51.120;13.132;2023-12-22T11:50:54;5.00;99.90
31307;DHT22;17935;51.120;13.132;2023-12-22T11:53:39;4.90;99.90
31307;DHT22;17935;51.120;13.132;2023-12-22T12:09:46;5.40;99.90
31307;DHT22;17935;51.120;13.132;2023-12-22T14:10:59;1.40;99.90
31307;DHT22;17935;51.120;13.132;2023-12-22T14:14:30;1.50;99.90
31307;DHT22;17935;51.120;13.132;2023-12-22T14:16:31;1.50;99.90
31307;DHT22;17935;51.120;13.132;2023-12-22T14:22:00;1.60;99.90
31307;DHT22;17935;51.120;13.132;2023-12-22T14:32:14;1.80;99.90
31307;DHT22;17935;51.120;13.132;2023-12-22T14:34:49;1.90;99.90
31307;DHT22;17935;51.120;13.132;2023-12-22T14:37:14;1.90;99.90
31307;DHT22;17935;51.120;13.132;2023-12-22T14:39:42;2.00;99.90
31307;DHT22;17935;51.120;13.132;2023-12-22T14:42:07;2.10;99.90
31307;DHT22;17935;51.120;13.132;2023-12-22T14:44:35;2.10;99.90
31307;DHT22;17935;51.120;13.132;2023-12-22T14:47:04;2.20;99.90
31307;DHT22;17935;51.120;13.132;2023-12-22T14:49:32;2.10;99.90
31307;DHT22;17935;51.120;13.132;2023-12-22T14:51:58;2.20;99.90
31307;DHT22;17935;51.120;13.132;2023-12-22T15:12:50;2.00;99.90
31307;DHT22;17935;51.120;13.132;2023-12-22T15:16:11;1.90;99.90
31307;DHT22;17935;51.120;13.132;2023-12-22T15:28:09;2.10;99.90
31307;DHT22;17935;51.120;13.132;2023-12-22T15:31:07;2.30;99.90
31307;DHT22;17935;51.120;13.132;2023-12-22T15:33:38;2.30;99.90
31307;DHT22;17935;51.120;13.132;2023-12-22T16:18:00;2.60;99.90
31307;DHT22;17935;51.120;13.132;2023-12-22T16:20:26;2.60;99.90
31307;DHT22;17935;51.120;13.132;2023-12-22T16:22:51;2.60;99.90
31307;DHT22;17935;51.120;13.132;2023-12-22T16:31:26;2.80;99.90
31307;DHT22;17935;51.120;13.132;2023-12-22T16:33:54;2.90;99.90
31307;DHT22;17935;51.120;13.132;2023-12-22T16:36:31;3.00;99.90
31307;DHT22;17935;51.120;13.132;2023-12-22T16:39:02;3.00;99.90
31307;DHT22;17935;51.120;13.132;2023-12-22T16:41:27;3.10;99.90
31307;DHT22;17935;51.120;13.132;2023-12-22T16:43:53;3.10;99.90
31307;DHT22;17935;51.120;13.132;2023-12-22T16:46:22;3.20;99.90
31307;DHT22;17935;51.120;13.132;2023-12-22T16:48:47;3.20;99.90
31307;DHT22;17935;51.120;13.132;2023-12-22T16:51:13;3.30;99.90
31307;DHT22;17935;51.120;13.132;2023-12-22T16:53:39;3.30;99.90
31307;DHT22;17935;51.120;13.132;2023-12-22T16:56:04;3.30;99.90
31307;DHT22;17935;51.120;13.132;2023-12-22T16:58:30;3.20;99.90
31307;DHT22;17935;51.120;13.132;2023-12-22T17:00:55;2.80;99.90
31307;DHT22;17935;51.120;13.132;2023-12-22T17:03:21;2.50;99.90
31307;DHT22;17935;51.120;13.132;2023-12-22T17:05:47;2.20;99.90
31307;DHT22;17935;51.120;13.132;2023-12-22T17:08:12;2.10;99.90
31307;DHT22;17935;51.120;13.132;2023-12-22T17:10:39;2.00;99.90
31307;DHT22;17935;51.120;13.132;2023-12-22T17:13:04;1.90;99.90
31307;DHT22;17935;51.120;13.132;2023-12-22T17:15:32;1.70;99.90
31307;DHT22;17935;51.120;13.132;2023-12-22T17:17:57;1.50;99.90
31307;DHT22;17935;51.120;13.132;2023-12-22T17:37:33;1.00;99.90
31307;DHT22;17935;51.120;13.132;2023-12-22T17:39:59;1.00;99.90
31307;DHT22;17935;51.120;13.132;2023-12-22T18:39:28;0.90;99.90
31307;DHT22;17935;51.120;13.132;2023-12-22T18:41:57;0.90;99.90
31307;DHT22;17935;51.120;13.132;2023-12-22T18:44:25;0.90;99.90
31307;DHT22;17935;51.120;13.132;2023-12-22T18:46:50;1.00;99.90
31307;DHT22;17935;51.120;13.132;2023-12-22T18:49:34;1.00;99.90
31307;DHT22;17935;51.120;13.132;2023-12-22T18:52:00;1.00;99.90
31307;DHT22;17935;51.120;13.132;2023-12-22T18:54:27;0.90;99.90
31307;DHT22;17935;51.120;13.132;2023-12-22T18:56:56;1.00;99.90
31307;DHT22;17935;51.120;13.132;2023-12-22T18:59:31;1.00;99.90
31307;DHT22;17935;51.120;13.132;2023-12-22T19:01:59;0.90;99.90
31307;DHT22;17935;51.120;13.132;2023-12-22T19:04:24;0.90;99.90
31307;DHT22;17935;51.120;13.132;2023-12-22T19:06:50;0.90;99.90
31307;DHT22;17935;51.120;13.132;2023-12-22T19:09:15;0.80;99.90
31307;DHT22;17935;51.120;13.132;2023-12-22T19:11:41;0.80;99.90
31307;DHT22;17935;51.120;13.132;2023-12-22T19:14:09;0.90;99.90
31307;DHT22;17935;51.120;13.132;2023-12-22T19:16:36;0.90;99.90
31307;DHT22;17935;51.120;13.132;2023-12-22T19:19:01;0.90;99.90
31307;DHT22;17935;51.120;13.132;2023-12-22T19:21:27;0.90;99.90
31307;DHT22;17935;51.120;13.132;2023-12-22T19:23:53;0.90;99.90
31307;DHT22;17935;51.120;13.132;2023-12-22T19:26:21;0.90;99.90
31307;DHT22;17935;51.120;13.132;2023-12-22T19:28:54;0.90;99.90
31307;DHT22;17935;51.120;13.132;2023-12-22T19:31:22;0.90;99.90
31307;DHT22;17935;51.120;13.132;2023-12-22T19:36:38;0.90;99.90
31307;DHT22;17935;51.120;13.132;2023-12-22T19:39:03;0.90;99.90
31307;DHT22;17935;51.120;13.132;2023-12-22T19:41:29;0.90;99.90
31307;DHT22;17935;51.120;13.132;2023-12-22T19:43:56;0.80;99.90
31307;DHT22;17935;51.120;13.132;2023-12-22T19:46:22;0.90;99.90
31307;DHT22;17935;51.120;13.132;2023-12-22T19:48:48;0.90;99.90
31307;DHT22;17935;51.120;13.132;2023-12-22T19:51:13;0.90;99.90
31307;DHT22;17935;51.120;13.132;2023-12-22T19:53:39;0.90;99.90
31307;DHT22;17935;51.120;13.132;2023-12-22T19:56:05;0.90;99.90
31307;DHT22;17935;51.120;13.132;2023-12-22T19:58:31;0.90;99.90
31307;DHT22;17935;51.120;13.132;2023-12-22T20:00:56;0.90;99.90
31307;DHT22;17935;51.120;13.132;2023-12-22T20:03:30;0.90;99.90
31307;DHT22;17935;51.120;13.132;2023-12-22T20:05:55;1.00;99.90
31307;DHT22;17935;51.120;13.132;2023-12-22T20:08:21;1.00;99.90
31307;DHT22;17935;51.120;13.132;2023-12-22T20:10:46;1.00;99.90
31307;DHT22;17935;51.120;13.132;2023-12-22T20:13:15;1.00;99.90
31307;DHT22;17935;51.120;13.132;2023-12-22T20:15:42;1.10;99.90
31307;DHT22;17935;51.120;13.132;2023-12-22T20:18:08;1.10;99.90
31307;DHT22;17935;51.120;13.132;2023-12-22T20:20:33;1.10;99.90
31307;DHT22;17935;51.120;13.132;2023-12-22T20:22:59;1.10;99.90
31307;DHT22;17935;51.120;13.132;2023-12-22T20:25:24;1.10;99.90
31307;DHT22;17935;51.120;13.132;2023-12-22T20:30:22;1.20;99.90
31307;DHT22;17935;51.120;13.132;2023-12-22T20:32:48;1.20;99.90
31307;DHT22;17935;51.120;13.132;2023-12-22T20:35:14;1.20;99.90
31307;DHT22;17935;51.120;13.132;2023-12-22T20:37:40;1.30;99.90
31307;DHT22;17935;51.120;13.132;2023-12-22T20:40:06;1.30;99.90
31307;DHT22;17935;51.120;13.132;2023-12-22T20:42:33;1.30;99.90
31307;DHT22;17935;51.120;13.132;2023-12-22T20:44:59;1.30;99.90
31307;DHT22;17935;51.120;13.132;2023-12-22T20:47:26;1.30;99.90
31307;DHT22;17935;51.120;13.132;2023-12-22T20:49:51;1.30;99.90
31307;DHT22;17935;51.120;13.132;2023-12-22T20:52:20;1.30;99.90
31307;DHT22;17935;51.120;13.132;2023-12-22T20:54:46;1.20;99.90
31307;DHT22;17935;51.120;13.132;2023-12-22T20:57:12;1.20;99.90
31307;DHT22;17935;51.120;13.132;2023-12-22T20:59:37;1.20;99.90
31307;DHT22;17935;51.120;13.132;2023-12-22T21:02:03;1.20;99.90
31307;DHT22;17935;51.120;13.132;2023-12-22T21:04:30;1.20;99.90
31307;DHT22;17935;51.120;13.132;2023-12-22T21:06:55;1.20;99.90
31307;DHT22;17935;51.120;13.132;2023-12-22T21:09:20;1.20;99.90
31307;DHT22;17935;51.120;13.132;2023-12-22T21:11:46;1.30;99.90
31307;DHT22;17935;51.120;13.132;2023-12-22T21:14:11;1.30;99.90
31307;DHT22;17935;51.120;13.132;2023-12-22T21:16:42;1.30;99.90
31307;DHT22;17935;51.120;13.132;2023-12-22T21:19:07;1.30;99.90
31307;DHT22;17935;51.120;13.132;2023-12-22T21:21:33;1.30;99.90
31307;DHT22;17935;51.120;13.132;2023-12-22T21:23:58;1.30;99.90
31307;DHT22;17935;51.120;13.132;2023-12-22T21:26:24;1.30;99.90
31307;DHT22;17935;51.120;13.132;2023-12-22T21:28:49;1.30;99.90
31307;DHT22;17935;51.120;13.132;2023-12-22T21:31:16;1.30;99.90
31307;DHT22;17935;51.120;13.132;2023-12-22T21:33:41;1.30;99.90
31307;DHT22;17935;51.120;13.132;2023-12-22T21:36:07;1.30;99.90
31307;DHT22;17935;51.120;13.132;2023-12-22T21:38:32;1.30;99.90
31307;DHT22;17935;51.120;13.132;2023-12-22T21:40:58;1.40;99.90
31307;DHT22;17935;51.120;13.132;2023-12-22T21:43:23;1.40;99.90
31307;DHT22;17935;51.120;13.132;2023-12-22T21:45:49;1.40;99.90
31307;DHT22;17935;51.120;13.132;2023-12-22T21:48:15;1.40;99.90
31307;DHT22;17935;51.120;13.132;2023-12-22T21:50:40;1.40;99.90
31307;DHT22;17935;51.120;13.132;2023-12-22T21:53:06;1.50;99.90
31307;DHT22;17935;51.120;13.132;2023-12-22T21:55:32;1.50;99.90
31307;DHT22;17935;51.120;13.132;2023-12-22T21:57:58;1.50;99.90
31307;DHT22;17935;51.120;13.132;2023-12-22T22:00:23;1.50;99.90
31307;DHT22;17935;51.120;13.132;2023-12-22T22:02:49;1.50;99.90
31307;DHT22;17935;51.120;13.132;2023-12-22T22:05:18;1.40;99.90
31307;DHT22;17935;51.120;13.132;2023-12-22T22:07:46;1.40;99.90
31307;DHT22;17935;51.120;13.132;2023-12-22T22:10:12;1.30;99.90
31307;DHT22;17935;51.120;13.132;2023-12-22T22:12:37;1.30;99.90
31307;DHT22;17935;51.120;13.132;2023-12-22T22:15:03;1.20;99.90
31307;DHT22;17935;51.120;13.132;2023-12-22T22:17:29;1.30;99.90
31307;DHT22;17935;51.120;13.132;2023-12-22T22:19:54;1.30;99.90
31307;DHT22;17935;51.120;13.132;2023-12-22T22:22:20;1.40;99.90
31307;DHT22;17935;51.120;13.132;2023-12-22T22:24:45;1.50;99.90
31307;DHT22;17935;51.120;13.132;2023-12-22T22:27:11;1.50;99.90
31307;DHT22;17935;51.120;13.132;2023-12-22T22:29:36;1.50;99.90
31307;DHT22;17935;51.120;13.132;2023-12-22T22:32:01;1.50;99.90
31307;DHT22;17935;51.120;13.132;2023-12-22T22:34:27;1.60;99.90
31307;DHT22;17935;51.120;13.132;2023-12-22T22:36:52;1.60;99.90
31307;DHT22;17935;51.120;13.132;2023-12-22T22:39:18;1.60;99.90
31307;DHT22;17935;51.120;13.132;2023-12-22T22:41:43;1.60;99.90
31307;DHT22;17935;51.120;13.132;2023-12-22T22:44:09;1.60;99.90
31307;DHT22;17935;51.120;13.132;2023-12-22T22:46:34;1.60;99.90
31307;DHT22;17935;51.120;13.132;2023-12-22T22:49:00;1.70;99.90
31307;DHT22;17935;51.120;13.132;2023-12-22T22:51:25;1.70;99.90